sensor_id;sensor_type;location;lat;lon;timestamp;pressure;altitude;pressure_sealevel;temperature;humidity
55347;BME280;41218;55.700;38.270;2023-10-19T00:03:54;98909.16;;;5.37;72.18
55347;BME280;41218;55.700;38.270;2023-10-19T00:08:58;98906.34;;;5.34;71.99
55347;BME280;41218;55.700;38.270;2023-10-19T00:13:59;98905.16;;;5.35;72.16
55347;BME280;41218;55.700;38.270;2023-10-19T00:19:02;98912.69;;;5.38;72.05
55347;BME280;41218;55.700;38.270;2023-10-19T00:24:04;98908.00;;;5.38;72.33
55347;BME280;41218;55.700;38.270;2023-10-19T00:29:05;98905.25;;;5.38;72.04
55347;BME280;41218;55.700;38.270;2023-10-19T00:34:27;98895.06;;;5.39;72.59
55347;BME280;41218;55.700;38.270;2023-10-19T00:39:29;98898.19;;;5.37;72.06
55347;BME280;41218;55.700;38.270;2023-10-19T00:44:40;98899.88;;;5.42;72.12
55347;BME280;41218;55.700;38.270;2023-10-19T00:49:52;98899.06;;;5.41;71.99
55347;BME280;41218;55.700;38.270;2023-10-19T00:54:55;98891.03;;;5.33;72.17
55347;BME280;41218;55.700;38.270;2023-10-19T00:59:59;98901.38;;;5.39;72.22
55347;BME280;41218;55.700;38.270;2023-10-19T01:05:11;98905.59;;;5.37;72.14
55347;BME280;41218;55.700;38.270;2023-10-19T01:10:22;98901.81;;;5.41;72.04
55347;BME280;41218;55.700;38.270;2023-10-19T01:15:23;98899.44;;;5.40;72.26
55347;BME280;41218;55.700;38.270;2023-10-19T01:20:31;98894.72;;;5.40;72.41
55347;BME280;41218;55.700;38.270;2023-10-19T01:25:53;98898.25;;;5.41;72.48
55347;BME280;41218;55.700;38.270;2023-10-19T01:30:54;98892.44;;;5.42;72.11
55347;BME280;41218;55.700;38.270;2023-10-19T01:35:55;98885.63;;;5.36;72.50
55347;BME280;41218;55.700;38.270;2023-10-19T01:41:10;98888.81;;;5.38;71.88
55347;BME280;41218;55.700;38.270;2023-10-19T01:46:15;98896.34;;;5.41;72.30
55347;BME280;41218;55.700;38.270;2023-10-19T01:51:26;98897.66;;;5.48;72.62
55347;BME280;41218;55.700;38.270;2023-10-19T01:56:28;98860.56;;;5.18;72.32
55347;BME280;41218;55.700;38.270;2023-10-19T02:01:29;98867.78;;;5.27;72.57
55347;BME280;41218;55.700;38.270;2023-10-19T02:06:33;98891.66;;;5.42;72.23
55347;BME280;41218;55.700;38.270;2023-10-19T02:11:36;98846.31;;;5.13;72.30
55347;BME280;41218;55.700;38.270;2023-10-19T02:16:50;98858.34;;;5.24;72.56
55347;BME280;41218;55.700;38.270;2023-10-19T02:21:54;98883.34;;;5.38;72.60
55347;BME280;41218;55.700;38.270;2023-10-19T02:26:57;98858.59;;;5.19;72.50
55347;BME280;41218;55.700;38.270;2023-10-19T02:31:58;98841.28;;;5.15;72.45
55347;BME280;41218;55.700;38.270;2023-10-19T02:37:04;98838.53;;;5.15;72.65
55347;BME280;41218;55.700;38.270;2023-10-19T02:42:05;98876.63;;;5.36;72.55
55347;BME280;41218;55.700;38.270;2023-10-19T02:47:05;98892.06;;;5.44;72.62
55347;BME280;41218;55.700;38.270;2023-10-19T02:52:09;98872.38;;;5.38;72.81
55347;BME280;41218;55.700;38.270;2023-10-19T02:57:13;98874.75;;;5.40;72.45
55347;BME280;41218;55.700;38.270;2023-10-19T03:02:14;98889.78;;;5.46;72.79
55347;BME280;41218;55.700;38.270;2023-10-19T03:07:14;98876.78;;;5.43;72.67
55347;BME280;41218;55.700;38.270;2023-10-19T03:12:16;98874.84;;;5.44;72.46
55347;BME280;41218;55.700;38.270;2023-10-19T03:17:17;98863.78;;;5.40;72.59
55347;BME280;41218;55.700;38.270;2023-10-19T03:22:21;98872.16;;;5.47;72.75
55347;BME280;41218;55.700;38.270;2023-10-19T03:27:21;98876.84;;;5.47;72.77
55347;BME280;41218;55.700;38.270;2023-10-19T03:32:23;98879.69;;;5.50;72.77
55347;BME280;41218;55.700;38.270;2023-10-19T03:37:28;98865.91;;;5.47;72.96
55347;BME280;41218;55.700;38.270;2023-10-19T03:42:31;98871.72;;;5.45;72.96
55347;BME280;41218;55.700;38.270;2023-10-19T03:47:40;98885.59;;;5.52;72.67
55347;BME280;41218;55.700;38.270;2023-10-19T03:52:43;98882.00;;;5.48;72.53
55347;BME280;41218;55.700;38.270;2023-10-19T03:57:45;98891.25;;;5.59;72.75
55347;BME280;41218;55.700;38.270;2023-10-19T04:02:54;98887.13;;;5.50;72.48
55347;BME280;41218;55.700;38.270;2023-10-19T04:07:56;98880.03;;;5.49;72.83
55347;BME280;41218;55.700;38.270;2023-10-19T04:12:57;98872.47;;;5.42;72.62
55347;BME280;41218;55.700;38.270;2023-10-19T04:18:02;98893.03;;;5.52;72.75
55347;BME280;41218;55.700;38.270;2023-10-19T04:23:09;98893.84;;;5.52;73.17
55347;BME280;41218;55.700;38.270;2023-10-19T04:28:15;98902.06;;;5.52;72.68
55347;BME280;41218;55.700;38.270;2023-10-19T04:33:17;98891.44;;;5.51;72.87
55347;BME280;41218;55.700;38.270;2023-10-19T04:38:19;98899.41;;;5.56;73.00
55347;BME280;41218;55.700;38.270;2023-10-19T04:43:22;98902.94;;;5.56;73.25
55347;BME280;41218;55.700;38.270;2023-10-19T04:48:23;98900.53;;;5.55;72.95
55347;BME280;41218;55.700;38.270;2023-10-19T04:53:24;98897.09;;;5.58;73.30
55347;BME280;41218;55.700;38.270;2023-10-19T04:58:24;98896.28;;;5.57;73.20
55347;BME280;41218;55.700;38.270;2023-10-19T05:03:31;98896.81;;;5.63;73.45
55347;BME280;41218;55.700;38.270;2023-10-19T05:08:32;98895.16;;;5.58;73.44
55347;BME280;41218;55.700;38.270;2023-10-19T05:13:35;98897.97;;;5.62;73.40
55347;BME280;41218;55.700;38.270;2023-10-19T05:18:35;98898.41;;;5.64;73.32
55347;BME280;41218;55.700;38.270;2023-10-19T05:23:36;98897.25;;;5.65;73.46
55347;BME280;41218;55.700;38.270;2023-10-19T05:28:36;98903.59;;;5.69;73.73
55347;BME280;41218;55.700;38.270;2023-10-19T05:33:37;98904.75;;;5.68;73.85
55347;BME280;41218;55.700;38.270;2023-10-19T05:38:37;98901.22;;;5.68;73.58
55347;BME280;41218;55.700;38.270;2023-10-19T05:43:38;98902.81;;;5.69;73.57
55347;BME280;41218;55.700;38.270;2023-10-19T05:48:39;98913.88;;;5.72;73.92
55347;BME280;41218;55.700;38.270;2023-10-19T05:53:39;98914.75;;;5.76;73.90
55347;BME280;41218;55.700;38.270;2023-10-19T05:58:40;98918.28;;;5.77;74.03
55347;BME280;41218;55.700;38.270;2023-10-19T06:03:41;98914.00;;;5.79;74.02
55347;BME280;41218;55.700;38.270;2023-10-19T06:08:41;98916.84;;;5.83;73.95
55347;BME280;41218;55.700;38.270;2023-10-19T06:13:42;98908.97;;;5.81;73.92
55347;BME280;41218;55.700;38.270;2023-10-19T06:18:43;98925.47;;;6.01;74.49
55347;BME280;41218;55.700;38.270;2023-10-19T06:23:44;98884.41;;;5.69;74.16
55347;BME280;41218;55.700;38.270;2023-10-19T06:28:45;98912.38;;;5.94;74.21
55347;BME280;41218;55.700;38.270;2023-10-19T06:33:45;98889.41;;;5.83;73.68
55347;BME280;41218;55.700;38.270;2023-10-19T06:38:46;98917.78;;;6.07;74.08
55347;BME280;41218;55.700;38.270;2023-10-19T06:43:47;98895.13;;;5.94;74.34
55347;BME280;41218;55.700;38.270;2023-10-19T06:48:47;98892.38;;;5.94;74.31
55347;BME280;41218;55.700;38.270;2023-10-19T06:53:53;98901.88;;;5.96;74.38
55347;BME280;41218;55.700;38.270;2023-10-19T06:58:56;98903.19;;;6.03;74.58
55347;BME280;41218;55.700;38.270;2023-10-19T07:03:59;98917.19;;;6.17;74.43
55347;BME280;41218;55.700;38.270;2023-10-19T07:09:00;98884.25;;;5.97;74.44
55347;BME280;41218;55.700;38.270;2023-10-19T07:14:03;98913.09;;;6.27;74.31
55347;BME280;41218;55.700;38.270;2023-10-19T07:19:07;98938.00;;;6.37;74.54
55347;BME280;41218;55.700;38.270;2023-10-19T07:24:09;98934.81;;;6.35;74.34
55347;BME280;41218;55.700;38.270;2023-10-19T07:29:11;98932.50;;;6.37;74.74
55347;BME280;41218;55.700;38.270;2023-10-19T07:34:15;98930.56;;;6.38;74.81
55347;BME280;41218;55.700;38.270;2023-10-19T07:39:16;98935.38;;;6.45;74.84
55347;BME280;41218;55.700;38.270;2023-10-19T07:44:19;98938.28;;;6.52;74.74
55347;BME280;41218;55.700;38.270;2023-10-19T07:49:19;98938.03;;;6.60;74.31
55347;BME280;41218;55.700;38.270;2023-10-19T07:54:22;98933.38;;;6.61;74.82
55347;BME280;41218;55.700;38.270;2023-10-19T07:59:22;98943.31;;;6.69;74.81
55347;BME280;41218;55.700;38.270;2023-10-19T08:04:23;98955.59;;;6.75;74.58
55347;BME280;41218;55.700;38.270;2023-10-19T08:09:25;98943.09;;;6.78;74.34
55347;BME280;41218;55.700;38.270;2023-10-19T08:14:32;98949.38;;;6.78;74.67
55347;BME280;41218;55.700;38.270;2023-10-19T08:19:33;98957.69;;;6.82;74.31
55347;BME280;41218;55.700;38.270;2023-10-19T08:24:36;98955.66;;;6.79;74.43
55347;BME280;41218;55.700;38.270;2023-10-19T08:29:37;98954.94;;;6.82;74.33
55347;BME280;41218;55.700;38.270;2023-10-19T08:34:38;98944.72;;;6.82;74.42
55347;BME280;41218;55.700;38.270;2023-10-19T08:39:40;98942.78;;;6.83;74.51
55347;BME280;41218;55.700;38.270;2023-10-19T08:44:40;98950.41;;;6.93;74.59
55347;BME280;41218;55.700;38.270;2023-10-19T08:49:41;98945.34;;;6.95;74.53
55347;BME280;41218;55.700;38.270;2023-10-19T08:54:42;98948.94;;;6.99;74.50
55347;BME280;41218;55.700;38.270;2023-10-19T08:59:43;98957.75;;;7.09;74.38
55347;BME280;41218;55.700;38.270;2023-10-19T09:04:47;98961.38;;;7.13;74.72
55347;BME280;41218;55.700;38.270;2023-10-19T09:09:48;98959.84;;;7.15;74.56
55347;BME280;41218;55.700;38.270;2023-10-19T09:14:49;98965.47;;;7.22;74.54
55347;BME280;41218;55.700;38.270;2023-10-19T09:19:50;98953.69;;;7.22;74.11
55347;BME280;41218;55.700;38.270;2023-10-19T09:24:52;98969.00;;;7.23;74.17
55347;BME280;41218;55.700;38.270;2023-10-19T09:29:56;98958.00;;;7.23;74.49
55347;BME280;41218;55.700;38.270;2023-10-19T09:34:57;98956.47;;;7.26;74.62
55347;BME280;41218;55.700;38.270;2023-10-19T09:40:00;98968.81;;;7.35;74.35
55347;BME280;41218;55.700;38.270;2023-10-19T09:45:03;98975.16;;;7.39;74.44
55347;BME280;41218;55.700;38.270;2023-10-19T09:50:06;98969.25;;;7.37;74.18
55347;BME280;41218;55.700;38.270;2023-10-19T09:55:52;98974.13;;;7.48;74.33
55347;BME280;41218;55.700;38.270;2023-10-19T10:00:29;98974.88;;;7.45;74.29
55347;BME280;41218;55.700;38.270;2023-10-19T10:05:44;98973.69;;;7.46;74.03
55347;BME280;41218;55.700;38.270;2023-10-19T10:10:45;98971.94;;;7.34;73.95
55347;BME280;41218;55.700;38.270;2023-10-19T10:15:48;98981.09;;;7.41;73.90
55347;BME280;41218;55.700;38.270;2023-10-19T10:20:55;98991.31;;;7.41;73.69
55347;BME280;41218;55.700;38.270;2023-10-19T10:26:04;98968.88;;;7.39;73.74
55347;BME280;41218;55.700;38.270;2023-10-19T10:36:09;98981.22;;;7.49;73.74
55347;BME280;41218;55.700;38.270;2023-10-19T10:41:11;98981.22;;;7.49;73.73
55347;BME280;41218;55.700;38.270;2023-10-19T10:46:12;98969.00;;;7.46;73.63
55347;BME280;41218;55.700;38.270;2023-10-19T10:51:17;98985.25;;;7.55;73.71
55347;BME280;41218;55.700;38.270;2023-10-19T10:56:19;98986.47;;;7.57;73.46
55347;BME280;41218;55.700;38.270;2023-10-19T11:01:30;98979.31;;;7.53;73.76
55347;BME280;41218;55.700;38.270;2023-10-19T11:06:33;98978.06;;;7.47;73.43
55347;BME280;41218;55.700;38.270;2023-10-19T11:11:37;98985.13;;;7.48;73.31
55347;BME280;41218;55.700;38.270;2023-10-19T11:16:39;98988.69;;;7.48;73.61
55347;BME280;41218;55.700;38.270;2023-10-19T11:21:52;98980.38;;;7.45;73.70
55347;BME280;41218;55.700;38.270;2023-10-19T11:26:53;98987.44;;;7.46;73.36
55347;BME280;41218;55.700;38.270;2023-10-19T11:32:01;98987.50;;;7.49;73.55
55347;BME280;41218;55.700;38.270;2023-10-19T11:37:02;98993.06;;;7.53;73.39
55347;BME280;41218;55.700;38.270;2023-10-19T11:42:05;98989.28;;;7.61;73.58
55347;BME280;41218;55.700;38.270;2023-10-19T11:47:05;98980.66;;;7.62;73.29
55347;BME280;41218;55.700;38.270;2023-10-19T11:52:06;98979.13;;;7.65;72.97
55347;BME280;41218;55.700;38.270;2023-10-19T11:57:09;98992.19;;;7.72;73.02
55347;BME280;41218;55.700;38.270;2023-10-19T12:02:10;98982.31;;;7.67;73.24
55347;BME280;41218;55.700;38.270;2023-10-19T12:07:11;98978.00;;;7.70;73.17
55347;BME280;41218;55.700;38.270;2023-10-19T12:12:12;98960.13;;;7.56;73.23
55347;BME280;41218;55.700;38.270;2023-10-19T12:17:13;98971.25;;;7.63;73.31
55347;BME280;41218;55.700;38.270;2023-10-19T12:22:18;98966.50;;;7.60;73.19
55347;BME280;41218;55.700;38.270;2023-10-19T12:27:19;98971.25;;;7.63;72.90
55347;BME280;41218;55.700;38.270;2023-10-19T12:32:19;98977.53;;;7.64;73.15
55347;BME280;41218;55.700;38.270;2023-10-19T12:37:23;98985.41;;;7.66;73.11
55347;BME280;41218;55.700;38.270;2023-10-19T12:42:24;98978.97;;;7.54;73.07
55347;BME280;41218;55.700;38.270;2023-10-19T12:47:25;98988.91;;;7.62;73.17
55347;BME280;41218;55.700;38.270;2023-10-19T12:52:26;98956.41;;;7.45;73.37
55347;BME280;41218;55.700;38.270;2023-10-19T12:57:26;99001.66;;;7.74;73.20
55347;BME280;41218;55.700;38.270;2023-10-19T13:02:27;98967.22;;;7.57;73.16
55347;BME280;41218;55.700;38.270;2023-10-19T13:07:33;98994.88;;;7.68;73.21
55347;BME280;41218;55.700;38.270;2023-10-19T13:12:34;98960.75;;;7.46;73.13
55347;BME280;41218;55.700;38.270;2023-10-19T13:17:37;98966.56;;;7.41;73.28
55347;BME280;41218;55.700;38.270;2023-10-19T13:22:37;98967.72;;;7.40;73.27
55347;BME280;41218;55.700;38.270;2023-10-19T13:27:39;99014.03;;;7.61;73.18
55347;BME280;41218;55.700;38.270;2023-10-19T13:32:45;98993.69;;;7.42;72.97
55347;BME280;41218;55.700;38.270;2023-10-19T13:37:47;98995.59;;;7.38;73.03
55347;BME280;41218;55.700;38.270;2023-10-19T13:42:47;99011.84;;;7.47;73.08
55347;BME280;41218;55.700;38.270;2023-10-19T13:47:49;98994.66;;;7.31;72.96
55347;BME280;41218;55.700;38.270;2023-10-19T13:52:55;98970.41;;;7.13;73.01
55347;BME280;41218;55.700;38.270;2023-10-19T13:58:00;98996.13;;;7.25;73.10
55347;BME280;41218;55.700;38.270;2023-10-19T14:03:05;98977.78;;;7.09;72.74
55347;BME280;41218;55.700;38.270;2023-10-19T14:08:06;99017.69;;;7.22;73.13
55347;BME280;41218;55.700;38.270;2023-10-19T14:13:08;99003.75;;;7.12;73.25
55347;BME280;41218;55.700;38.270;2023-10-19T14:18:09;99019.22;;;7.20;72.76
55347;BME280;41218;55.700;38.270;2023-10-19T14:23:10;98997.34;;;7.04;72.97
55347;BME280;41218;55.700;38.270;2023-10-19T14:28:11;99016.25;;;7.09;72.89
55347;BME280;41218;55.700;38.270;2023-10-19T14:33:12;99003.13;;;6.99;73.19
55347;BME280;41218;55.700;38.270;2023-10-19T14:38:12;99006.66;;;6.99;73.13
55347;BME280;41218;55.700;38.270;2023-10-19T14:43:15;99011.38;;;6.99;72.95
55347;BME280;41218;55.700;38.270;2023-10-19T14:48:15;99033.50;;;7.06;73.09
55347;BME280;41218;55.700;38.270;2023-10-19T14:53:19;99017.16;;;6.94;73.01
55347;BME280;41218;55.700;38.270;2023-10-19T14:58:19;99030.94;;;6.97;72.78
55347;BME280;41218;55.700;38.270;2023-10-19T15:03:20;99019.34;;;6.85;73.02
55347;BME280;41218;55.700;38.270;2023-10-19T15:08:24;99026.72;;;6.80;72.96
55347;BME280;41218;55.700;38.270;2023-10-19T15:13:27;99041.66;;;6.83;72.85
55347;BME280;41218;55.700;38.270;2023-10-19T15:18:27;99025.75;;;6.73;72.84
55347;BME280;41218;55.700;38.270;2023-10-19T15:23:28;99042.41;;;6.80;73.10
55347;BME280;41218;55.700;38.270;2023-10-19T15:28:29;99051.44;;;6.80;72.88
55347;BME280;41218;55.700;38.270;2023-10-19T15:33:33;99013.28;;;6.56;72.47
55347;BME280;41218;55.700;38.270;2023-10-19T15:38:37;99057.66;;;6.77;73.09
55347;BME280;41218;55.700;38.270;2023-10-19T15:43:37;99058.44;;;6.78;72.95
55347;BME280;41218;55.700;38.270;2023-10-19T15:48:38;99066.34;;;6.79;72.92
55347;BME280;41218;55.700;38.270;2023-10-19T15:53:38;99047.25;;;6.67;72.82
55347;BME280;41218;55.700;38.270;2023-10-19T15:58:39;99065.81;;;6.74;72.69
55347;BME280;41218;55.700;38.270;2023-10-19T16:03:40;99058.66;;;6.69;72.99
55347;BME280;41218;55.700;38.270;2023-10-19T16:08:40;99060.59;;;6.69;73.07
55347;BME280;41218;55.700;38.270;2023-10-19T16:13:41;99076.38;;;6.72;72.87
55347;BME280;41218;55.700;38.270;2023-10-19T16:18:44;99070.44;;;6.70;73.03
55347;BME280;41218;55.700;38.270;2023-10-19T16:23:44;99073.97;;;6.70;73.00
55347;BME280;41218;55.700;38.270;2023-10-19T16:28:45;99070.44;;;6.70;73.04
55347;BME280;41218;55.700;38.270;2023-10-19T16:33:45;99071.53;;;6.65;72.93
55347;BME280;41218;55.700;38.270;2023-10-19T16:38:47;99073.63;;;6.72;72.88
55347;BME280;41218;55.700;38.270;2023-10-19T16:43:47;99062.03;;;6.62;72.78
55347;BME280;41218;55.700;38.270;2023-10-19T16:48:48;99066.66;;;6.58;73.08
55347;BME280;41218;55.700;38.270;2023-10-19T16:53:48;99071.00;;;6.59;73.07
55347;BME280;41218;55.700;38.270;2023-10-19T16:58:49;99052.38;;;6.49;73.30
55347;BME280;41218;55.700;38.270;2023-10-19T17:03:50;99045.56;;;6.43;73.12
55347;BME280;41218;55.700;38.270;2023-10-19T17:08:50;99045.56;;;6.43;73.11
55347;BME280;41218;55.700;38.270;2023-10-19T17:13:51;99037.16;;;6.36;73.30
55347;BME280;41218;55.700;38.270;2023-10-19T17:18:55;99071.72;;;6.56;73.10
55347;BME280;41218;55.700;38.270;2023-10-19T17:23:56;99053.41;;;6.45;73.28
55347;BME280;41218;55.700;38.270;2023-10-19T17:28:57;99080.84;;;6.60;73.17
55347;BME280;41218;55.700;38.270;2023-10-19T17:34:09;99033.53;;;6.32;73.18
55347;BME280;41218;55.700;38.270;2023-10-19T17:39:10;99043.38;;;6.33;73.15
55347;BME280;41218;55.700;38.270;2023-10-19T17:44:12;99062.66;;;6.36;73.10
55347;BME280;41218;55.700;38.270;2023-10-19T17:49:16;99052.66;;;6.28;73.23
55347;BME280;41218;55.700;38.270;2023-10-19T17:54:17;99092.03;;;6.52;73.28
55347;BME280;41218;55.700;38.270;2023-10-19T17:59:19;99062.59;;;6.33;73.23
55347;BME280;41218;55.700;38.270;2023-10-19T18:04:21;99081.31;;;6.47;73.28
55347;BME280;41218;55.700;38.270;2023-10-19T18:09:21;99083.56;;;6.41;73.43
55347;BME280;41218;55.700;38.270;2023-10-19T18:14:22;99072.75;;;6.32;73.46
55347;BME280;41218;55.700;38.270;2023-10-19T18:19:23;99075.88;;;6.31;73.41
55347;BME280;41218;55.700;38.270;2023-10-19T18:24:23;99080.22;;;6.32;73.25
55347;BME280;41218;55.700;38.270;2023-10-19T18:29:25;99056.78;;;6.18;73.19
55347;BME280;41218;55.700;38.270;2023-10-19T18:34:26;99092.41;;;6.34;73.30
55347;BME280;41218;55.700;38.270;2023-10-19T18:39:27;99079.63;;;6.22;73.43
55347;BME280;41218;55.700;38.270;2023-10-19T18:44:28;99109.41;;;6.40;73.21
55347;BME280;41218;55.700;38.270;2023-10-19T18:49:28;99113.81;;;6.45;73.54
55347;BME280;41218;55.700;38.270;2023-10-19T18:54:29;99108.63;;;6.39;73.61
55347;BME280;41218;55.700;38.270;2023-10-19T18:59:30;99114.09;;;6.39;73.62
55347;BME280;41218;55.700;38.270;2023-10-19T19:04:30;99103.38;;;6.34;73.58
55347;BME280;41218;55.700;38.270;2023-10-19T19:09:31;99099.31;;;6.28;73.84
55347;BME280;41218;55.700;38.270;2023-10-19T19:14:32;99083.84;;;6.20;73.95
55347;BME280;41218;55.700;38.270;2023-10-19T19:19:33;99127.38;;;6.53;73.73
55347;BME280;41218;55.700;38.270;2023-10-19T19:24:34;99108.81;;;6.31;73.58
55347;BME280;41218;55.700;38.270;2023-10-19T19:29:44;99084.13;;;6.15;74.03
55347;BME280;41218;55.700;38.270;2023-10-19T19:34:44;99102.06;;;6.28;73.47
55347;BME280;41218;55.700;38.270;2023-10-19T19:39:46;99135.06;;;6.48;73.40
55347;BME280;41218;55.700;38.270;2023-10-19T19:44:47;99101.38;;;6.31;73.55
55347;BME280;41218;55.700;38.270;2023-10-19T19:49:48;99084.22;;;6.18;73.77
55347;BME280;41218;55.700;38.270;2023-10-19T19:54:49;99126.22;;;6.38;73.43
55347;BME280;41218;55.700;38.270;2023-10-19T19:59:53;99134.72;;;6.49;73.56
55347;BME280;41218;55.700;38.270;2023-10-19T20:04:54;99128.28;;;6.41;73.60
55347;BME280;41218;55.700;38.270;2023-10-19T20:09:54;99140.56;;;6.48;73.68
55347;BME280;41218;55.700;38.270;2023-10-19T20:14:55;99130.66;;;6.43;73.95
55347;BME280;41218;55.700;38.270;2023-10-19T20:19:56;99142.16;;;6.49;73.59
55347;BME280;41218;55.700;38.270;2023-10-19T20:24:56;99135.28;;;6.39;73.77
55347;BME280;41218;55.700;38.270;2023-10-19T20:29:57;99136.16;;;6.43;73.69
55347;BME280;41218;55.700;38.270;2023-10-19T20:34:58;99112.34;;;6.31;73.80
55347;BME280;41218;55.700;38.270;2023-10-19T20:39:59;99135.50;;;6.50;74.06
55347;BME280;41218;55.700;38.270;2023-10-19T20:45:07;99126.88;;;6.32;73.57
55347;BME280;41218;55.700;38.270;2023-10-19T20:50:07;99103.00;;;6.16;73.65
55347;BME280;41218;55.700;38.270;2023-10-19T20:55:08;99134.84;;;6.37;73.93
55347;BME280;41218;55.700;38.270;2023-10-19T21:00:16;99138.38;;;6.37;74.06
55347;BME280;41218;55.700;38.270;2023-10-19T21:05:19;99148.47;;;6.49;73.98
55347;BME280;41218;55.700;38.270;2023-10-19T21:10:22;99129.69;;;6.35;74.03
55347;BME280;41218;55.700;38.270;2023-10-19T21:15:22;99132.34;;;6.32;74.24
55347;BME280;41218;55.700;38.270;2023-10-19T21:20:24;99118.19;;;6.30;74.11
55347;BME280;41218;55.700;38.270;2023-10-19T21:25:27;99138.09;;;6.42;73.83
55347;BME280;41218;55.700;38.270;2023-10-19T21:30:28;99130.94;;;6.38;73.74
55347;BME280;41218;55.700;38.270;2023-10-19T21:35:28;99159.06;;;6.51;73.58
55347;BME280;41218;55.700;38.270;2023-10-19T21:40:29;99145.53;;;6.42;74.21
55347;BME280;41218;55.700;38.270;2023-10-19T21:45:30;99166.06;;;6.48;73.84
55347;BME280;41218;55.700;38.270;2023-10-19T21:50:33;99176.34;;;6.51;73.90
55347;BME280;41218;55.700;38.270;2023-10-19T21:55:34;99169.59;;;6.49;73.91
55347;BME280;41218;55.700;38.270;2023-10-19T22:00:35;99166.41;;;6.47;73.77
55347;BME280;41218;55.700;38.270;2023-10-19T22:05:37;99156.16;;;6.44;73.79
55347;BME280;41218;55.700;38.270;2023-10-19T22:10:37;99176.34;;;6.51;73.83
55347;BME280;41218;55.700;38.270;2023-10-19T22:15:38;99171.31;;;6.53;74.06
55347;BME280;41218;55.700;38.270;2023-10-19T22:20:40;99179.53;;;6.53;74.07
55347;BME280;41218;55.700;38.270;2023-10-19T22:25:41;99179.16;;;6.55;73.81
55347;BME280;41218;55.700;38.270;2023-10-19T22:30:41;99181.91;;;6.55;73.99
55347;BME280;41218;55.700;38.270;2023-10-19T22:35:42;99175.97;;;6.53;74.02
55347;BME280;41218;55.700;38.270;2023-10-19T22:40:43;99186.94;;;6.53;73.72
55347;BME280;41218;55.700;38.270;2023-10-19T22:45:44;99181.13;;;6.54;73.85
55347;BME280;41218;55.700;38.270;2023-10-19T22:50:44;99179.88;;;6.52;73.88
55347;BME280;41218;55.700;38.270;2023-10-19T22:55:45;99173.59;;;6.51;73.96
55347;BME280;41218;55.700;38.270;2023-10-19T23:00:55;99180.59;;;6.49;74.01
55347;BME280;41218;55.700;38.270;2023-10-19T23:05:55;99175.47;;;6.47;73.77
55347;BME280;41218;55.700;38.270;2023-10-19T23:10:56;99181.13;;;6.54;73.94
55347;BME280;41218;55.700;38.270;2023-10-19T23:15:56;99187.78;;;6.53;73.98
55347;BME280;41218;55.700;38.270;2023-10-19T23:21:01;99195.56;;;6.51;73.86
55347;BME280;41218;55.700;38.270;2023-10-19T23:26:02;99185.19;;;6.45;73.84
55347;BME280;41218;55.700;38.270;2023-10-19T23:31:07;99190.78;;;6.48;73.87
55347;BME280;41218;55.700;38.270;2023-10-19T23:36:07;99182.00;;;6.42;73.86
55347;BME280;41218;55.700;38.270;2023-10-19T23:41:08;99199.81;;;6.49;73.69
55347;BME280;41218;55.700;38.270;2023-10-19T23:46:09;99178.03;;;6.40;73.97
55347;BME280;41218;55.700;38.270;2023-10-19T23:51:10;99189.19;;;6.47;73.70
55347;BME280;41218;55.700;38.270;2023-10-19T23:56:10;99194.69;;;6.47;73.80
